Time;durP1;ratioP1;P1;durP2;ratioP2;P2;SDS_P1;SDS_P2;PMS_P1;PMS_P2;Temp;Humidity;BMP_temperature;BMP_pressure;BME280_temperature;BME280_humidity;BME280_pressure;Samples;Min_cycle;Max_cycle;Signal;HPM_P1;HPM_P2
2022/02/28 00:00:08;;;;;;;13.75;8.050001;;;;;;;-2.54;45.7168;96327.44;;;;
2022/02/28 00:01:13;;;;;;;13.75;8.050001;;;;;;;-2.54;45.7168;96327.44;;;;
2022/02/28 00:02:18;;;;;;;13.75;8.050001;;;;;;;-2.54;45.7168;96327.44;;;;
2022/02/28 00:03:19;;;;;;;13.75;8.050001;;;;;;;-2.54;45.7168;96327.44;;;;
2022/02/28 00:04:21;;;;;;;13.75;8.050001;;;;;;;-2.54;45.7168;96327.44;;;;
2022/02/28 00:05:22;;;;;;;13.75;8.050001;;;;;;;-2.54;45.7168;96327.44;;;;
2022/02/28 00:06:23;;;;;;;13.75;8.050001;;;;;;;-2.54;45.7168;96327.44;;;;
2022/02/28 00:07:24;;;;;;;13.75;8.050001;;;;;;;-2.54;45.7168;96327.44;;;;
2022/02/28 00:08:24;;;;;;;13.75;8.050001;;;;;;;-2.54;45.7168;96327.44;;;;
2022/02/28 00:09:25;;;;;;;14.85;8.35;;;;;;;-2.74;45.98926;96326.01;;;;
2022/02/28 00:10:25;;;;;;;14.85;8.35;;;;;;;-2.74;45.98926;96326.01;;;;
2022/02/28 00:11:26;;;;;;;14.85;8.35;;;;;;;-2.74;45.98926;96326.01;;;;
2022/02/28 00:12:26;;;;;;;14.85;8.35;;;;;;;-2.74;45.98926;96326.01;;;;
2022/02/28 00:13:27;;;;;;;14.85;8.35;;;;;;;-2.74;45.98926;96326.01;;;;
2022/02/28 00:14:27;;;;;;;14.85;8.35;;;;;;;-2.74;45.98926;96326.01;;;;
2022/02/28 00:15:28;;;;;;;14.85;8.35;;;;;;;-2.74;45.98926;96326.01;;;;
2022/02/28 00:16:28;;;;;;;14.85;8.35;;;;;;;-2.74;45.98926;96326.01;;;;
2022/02/28 00:17:29;;;;;;;14.85;8.35;;;;;;;-2.74;45.98926;96326.01;;;;
2022/02/28 00:18:30;;;;;;;14.85;8.35;;;;;;;-2.74;45.98926;96326.01;;;;
2022/02/28 00:19:31;;;;;;;14.85;8.35;;;;;;;-2.74;45.98926;96326.01;;;;
2022/02/28 00:20:31;;;;;;;14.85;8.35;;;;;;;-2.74;45.98926;96326.01;;;;
2022/02/28 00:21:33;;;;;;;14.85;8.35;;;;;;;-2.74;45.98926;96326.01;;;;
2022/02/28 00:22:33;;;;;;;14.85;8.35;;;;;;;-2.74;45.98926;96326.01;;;;
2022/02/28 00:23:35;;;;;;;14.85;8.35;;;;;;;-2.74;45.98926;96326.01;;;;
2022/02/28 00:24:36;;;;;;;14.85;8.35;;;;;;;-2.74;45.98926;96326.01;;;;
2022/02/28 00:25:36;;;;;;;14.85;8.35;;;;;;;-2.74;45.98926;96326.01;;;;
2022/02/28 00:26:37;;;;;;;14.85;8.35;;;;;;;-2.74;45.98926;96326.01;;;;
2022/02/28 00:27:38;;;;;;;14.85;8.35;;;;;;;-2.74;45.98926;96326.01;;;;
2022/02/28 00:28:39;;;;;;;14.85;8.35;;;;;;;-2.74;45.98926;96326.01;;;;
2022/02/28 00:29:40;;;;;;;14.85;8.35;;;;;;;-2.74;45.98926;96326.01;;;;
2022/02/28 00:30:40;;;;;;;14.85;8.35;;;;;;;-2.74;45.98926;96326.01;;;;
2022/02/28 00:31:41;;;;;;;15.85;8.450001;;;;;;;-2.9;46.21191;96321.67;;;;
2022/02/28 00:32:42;;;;;;;15.85;8.450001;;;;;;;-2.9;46.21191;96321.67;;;;
2022/02/28 00:33:42;;;;;;;15.85;8.450001;;;;;;;-2.9;46.21191;96321.67;;;;
2022/02/28 00:34:42;;;;;;;15.85;8.450001;;;;;;;-2.9;46.21191;96321.67;;;;
2022/02/28 00:35:43;;;;;;;15.85;8.450001;;;;;;;-2.9;46.21191;96321.67;;;;
2022/02/28 00:36:44;;;;;;;15.85;8.450001;;;;;;;-2.9;46.21191;96321.67;;;;
2022/02/28 00:37:44;;;;;;;15.85;8.450001;;;;;;;-2.9;46.21191;96321.67;;;;
2022/02/28 00:38:45;;;;;;;15.85;8.450001;;;;;;;-2.9;46.21191;96321.67;;;;
2022/02/28 00:39:46;;;;;;;15.85;8.450001;;;;;;;-2.9;46.21191;96321.67;;;;
2022/02/28 00:40:46;;;;;;;15.85;8.450001;;;;;;;-2.9;46.21191;96321.67;;;;
2022/02/28 00:41:47;;;;;;;15.35;8.5;;;;;;;-2.98;46.31641;96313.58;;;;
2022/02/28 00:42:47;;;;;;;15.35;8.5;;;;;;;-2.98;46.31641;96313.58;;;;
2022/02/28 00:43:48;;;;;;;15.35;8.5;;;;;;;-2.98;46.31641;96313.58;;;;
2022/02/28 00:44:49;;;;;;;15.35;8.5;;;;;;;-2.98;46.31641;96313.58;;;;
2022/02/28 00:45:49;;;;;;;15.35;8.5;;;;;;;-2.98;46.31641;96313.58;;;;
2022/02/28 00:46:50;;;;;;;15.35;8.5;;;;;;;-2.98;46.31641;96313.58;;;;
2022/02/28 00:47:50;;;;;;;15.35;8.5;;;;;;;-2.98;46.31641;96313.58;;;;
2022/02/28 00:48:51;;;;;;;15.35;8.5;;;;;;;-2.98;46.31641;96313.58;;;;
2022/02/28 00:49:52;;;;;;;15.35;8.5;;;;;;;-2.98;46.31641;96313.58;;;;
2022/02/28 00:50:52;;;;;;;15.35;8.5;;;;;;;-2.98;46.31641;96313.58;;;;
2022/02/28 00:51:53;;;;;;;15.35;8.5;;;;;;;-2.98;46.31641;96313.58;;;;
2022/02/28 00:52:54;;;;;;;12.75;7.700001;;;;;;;-3.13;46.41602;96317.05;;;;
2022/02/28 00:53:54;;;;;;;12.75;7.700001;;;;;;;-3.13;46.41602;96317.05;;;;
2022/02/28 00:54:55;;;;;;;12.75;7.700001;;;;;;;-3.13;46.41602;96317.05;;;;
2022/02/28 00:55:55;;;;;;;12.75;7.700001;;;;;;;-3.13;46.41602;96317.05;;;;
2022/02/28 00:56:56;;;;;;;12.75;7.700001;;;;;;;-3.13;46.41602;96317.05;;;;
2022/02/28 00:57:57;;;;;;;12.75;7.700001;;;;;;;-3.13;46.41602;96317.05;;;;
2022/02/28 00:58:58;;;;;;;12.75;7.700001;;;;;;;-3.13;46.41602;96317.05;;;;
2022/02/28 00:59:58;;;;;;;12.75;7.700001;;;;;;;-3.13;46.41602;96317.05;;;;
2022/02/28 01:00:59;;;;;;;12.75;7.700001;;;;;;;-3.13;46.41602;96317.05;;;;
2022/02/28 01:02:00;;;;;;;12.75;7.700001;;;;;;;-3.13;46.41602;96317.05;;;;
2022/02/28 01:03:02;;;;;;;14.8;8.65;;;;;;;-3.25;46.51855;96308.33;;;;
2022/02/28 01:04:02;;;;;;;14.8;8.65;;;;;;;-3.25;46.51855;96308.33;;;;
2022/02/28 01:05:04;;;;;;;14.8;8.65;;;;;;;-3.25;46.51855;96308.33;;;;
2022/02/28 01:06:07;;;;;;;14.8;8.65;;;;;;;-3.25;46.51855;96308.33;;;;
2022/02/28 01:07:08;;;;;;;14.8;8.65;;;;;;;-3.25;46.51855;96308.33;;;;
2022/02/28 01:08:08;;;;;;;14.8;8.65;;;;;;;-3.25;46.51855;96308.33;;;;
2022/02/28 01:09:09;;;;;;;14.8;8.65;;;;;;;-3.25;46.51855;96308.33;;;;
2022/02/28 01:10:09;;;;;;;14.8;8.65;;;;;;;-3.25;46.51855;96308.33;;;;
2022/02/28 01:11:13;;;;;;;14.8;8.65;;;;;;;-3.25;46.51855;96308.33;;;;
2022/02/28 01:12:14;;;;;;;14.8;8.65;;;;;;;-3.25;46.51855;96308.33;;;;
2022/02/28 01:13:15;;;;;;;14.8;8.65;;;;;;;-3.25;46.51855;96308.33;;;;
2022/02/28 01:14:16;;;;;;;16.2;8.65;;;;;;;-3.39;46.64746;96295.92;;;;
2022/02/28 01:15:16;;;;;;;16.2;8.65;;;;;;;-3.39;46.64746;96295.92;;;;
2022/02/28 01:16:19;;;;;;;16.2;8.65;;;;;;;-3.39;46.64746;96295.92;;;;
2022/02/28 01:17:21;;;;;;;16.2;8.65;;;;;;;-3.39;46.64746;96295.92;;;;
2022/02/28 01:18:21;;;;;;;16.2;8.65;;;;;;;-3.39;46.64746;96295.92;;;;
2022/02/28 01:19:22;;;;;;;16.2;8.65;;;;;;;-3.39;46.64746;96295.92;;;;
2022/02/28 01:20:23;;;;;;;16.2;8.65;;;;;;;-3.39;46.64746;96295.92;;;;
2022/02/28 01:21:23;;;;;;;16.2;8.65;;;;;;;-3.39;46.64746;96295.92;;;;
2022/02/28 01:22:24;;;;;;;16.2;8.65;;;;;;;-3.39;46.64746;96295.92;;;;
2022/02/28 01:23:24;;;;;;;16.2;8.65;;;;;;;-3.39;46.64746;96295.92;;;;
2022/02/28 01:24:25;;;;;;;17.3;8.849999;;;;;;;-3.47;46.86914;96297.02;;;;
2022/02/28 01:25:26;;;;;;;17.3;8.849999;;;;;;;-3.47;46.86914;96297.02;;;;
2022/02/28 01:26:26;;;;;;;17.3;8.849999;;;;;;;-3.47;46.86914;96297.02;;;;
2022/02/28 01:27:27;;;;;;;17.3;8.849999;;;;;;;-3.47;46.86914;96297.02;;;;
2022/02/28 01:28:27;;;;;;;17.3;8.849999;;;;;;;-3.47;46.86914;96297.02;;;;
2022/02/28 01:29:28;;;;;;;17.3;8.849999;;;;;;;-3.47;46.86914;96297.02;;;;
2022/02/28 01:30:28;;;;;;;17.3;8.849999;;;;;;;-3.47;46.86914;96297.02;;;;
2022/02/28 01:31:29;;;;;;;17.3;8.849999;;;;;;;-3.47;46.86914;96297.02;;;;
2022/02/28 01:32:29;;;;;;;17.3;8.849999;;;;;;;-3.47;46.86914;96297.02;;;;
2022/02/28 01:33:31;;;;;;;17.3;8.849999;;;;;;;-3.47;46.86914;96297.02;;;;
2022/02/28 01:34:31;;;;;;;17.3;8.849999;;;;;;;-3.47;46.86914;96297.02;;;;
2022/02/28 01:35:32;;;;;;;13.55;8.799999;;;;;;;-3.61;46.98926;96304.75;;;;
2022/02/28 01:36:32;;;;;;;13.55;8.799999;;;;;;;-3.61;46.98926;96304.75;;;;
2022/02/28 01:37:33;;;;;;;13.55;8.799999;;;;;;;-3.61;46.98926;96304.75;;;;
2022/02/28 01:38:33;;;;;;;13.55;8.799999;;;;;;;-3.61;46.98926;96304.75;;;;
2022/02/28 01:39:34;;;;;;;13.55;8.799999;;;;;;;-3.61;46.98926;96304.75;;;;
2022/02/28 01:40:35;;;;;;;13.55;8.799999;;;;;;;-3.61;46.98926;96304.75;;;;
2022/02/28 01:41:35;;;;;;;13.55;8.799999;;;;;;;-3.61;46.98926;96304.75;;;;
2022/02/28 01:42:36;;;;;;;13.55;8.799999;;;;;;;-3.61;46.98926;96304.75;;;;
2022/02/28 01:43:37;;;;;;;13.55;8.799999;;;;;;;-3.61;46.98926;96304.75;;;;
2022/02/28 01:44:37;;;;;;;13.55;8.799999;;;;;;;-3.61;46.98926;96304.75;;;;
2022/02/28 01:45:38;;;;;;;16.55;9;;;;;;;-3.74;47.09961;96297.05;;;;
2022/02/28 01:46:39;;;;;;;16.55;9;;;;;;;-3.74;47.09961;96297.05;;;;
2022/02/28 01:47:39;;;;;;;16.55;9;;;;;;;-3.74;47.09961;96297.05;;;;
2022/02/28 01:48:40;;;;;;;16.55;9;;;;;;;-3.74;47.09961;96297.05;;;;
2022/02/28 01:49:41;;;;;;;16.55;9;;;;;;;-3.74;47.09961;96297.05;;;;
2022/02/28 01:50:41;;;;;;;16.55;9;;;;;;;-3.74;47.09961;96297.05;;;;
2022/02/28 01:51:42;;;;;;;16.55;9;;;;;;;-3.74;47.09961;96297.05;;;;
2022/02/28 01:52:45;;;;;;;16.55;9;;;;;;;-3.74;47.09961;96297.05;;;;
2022/02/28 01:53:46;;;;;;;16.55;9;;;;;;;-3.74;47.09961;96297.05;;;;
2022/02/28 01:54:47;;;;;;;16.55;9;;;;;;;-3.74;47.09961;96297.05;;;;
2022/02/28 01:55:47;;;;;;;16.55;9;;;;;;;-3.74;47.09961;96297.05;;;;
2022/02/28 01:56:48;;;;;;;15.15;11.8;;;;;;;-3.89;47.25098;96284.65;;;;
2022/02/28 01:57:48;;;;;;;15.15;11.8;;;;;;;-3.89;47.25098;96284.65;;;;
2022/02/28 01:58:50;;;;;;;15.15;11.8;;;;;;;-3.89;47.25098;96284.65;;;;
2022/02/28 01:59:51;;;;;;;15.15;11.8;;;;;;;-3.89;47.25098;96284.65;;;;
2022/02/28 02:00:52;;;;;;;15.15;11.8;;;;;;;-3.89;47.25098;96284.65;;;;
2022/02/28 02:01:52;;;;;;;15.15;11.8;;;;;;;-3.89;47.25098;96284.65;;;;
2022/02/28 02:02:53;;;;;;;15.15;11.8;;;;;;;-3.89;47.25098;96284.65;;;;
2022/02/28 02:03:54;;;;;;;15.15;11.8;;;;;;;-3.89;47.25098;96284.65;;;;
2022/02/28 02:04:54;;;;;;;15.15;11.8;;;;;;;-3.89;47.25098;96284.65;;;;
2022/02/28 02:05:55;;;;;;;15.15;11.8;;;;;;;-3.89;47.25098;96284.65;;;;
2022/02/28 02:06:56;;;;;;;15.15;11.8;;;;;;;-3.89;47.25098;96284.65;;;;
2022/02/28 02:07:56;;;;;;;21.35;12.6;;;;;;;-4.01;48.1543;96289.57;;;;
2022/02/28 02:08:58;;;;;;;21.35;12.6;;;;;;;-4.01;48.1543;96289.57;;;;
2022/02/28 02:09:59;;;;;;;21.35;12.6;;;;;;;-4.01;48.1543;96289.57;;;;
2022/02/28 02:11:03;;;;;;;21.35;12.6;;;;;;;-4.01;48.1543;96289.57;;;;
2022/02/28 02:12:04;;;;;;;21.35;12.6;;;;;;;-4.01;48.1543;96289.57;;;;
2022/02/28 02:13:06;;;;;;;21.35;12.6;;;;;;;-4.01;48.1543;96289.57;;;;
2022/02/28 02:14:08;;;;;;;21.35;12.6;;;;;;;-4.01;48.1543;96289.57;;;;
2022/02/28 02:15:10;;;;;;;21.35;12.6;;;;;;;-4.01;48.1543;96289.57;;;;
2022/02/28 02:16:13;;;;;;;21.35;12.6;;;;;;;-4.01;48.1543;96289.57;;;;
2022/02/28 02:17:14;;;;;;;21.35;12.6;;;;;;;-4.01;48.1543;96289.57;;;;
2022/02/28 02:18:15;;;;;;;18.95;12.55;;;;;;;-4.15;48.9082;96288.51;;;;
2022/02/28 02:19:16;;;;;;;18.95;12.55;;;;;;;-4.15;48.9082;96288.51;;;;
2022/02/28 02:20:16;;;;;;;18.95;12.55;;;;;;;-4.15;48.9082;96288.51;;;;
2022/02/28 02:21:47;;;;;;;18.95;12.55;;;;;;;-4.15;48.9082;96288.51;;;;
2022/02/28 02:22:49;;;;;;;18.95;12.55;;;;;;;-4.15;48.9082;96288.51;;;;
2022/02/28 02:23:58;;;;;;;18.95;12.55;;;;;;;-4.15;48.9082;96288.51;;;;
2022/02/28 02:24:59;;;;;;;18.95;12.55;;;;;;;-4.15;48.9082;96288.51;;;;
2022/02/28 02:26:00;;;;;;;18.95;12.55;;;;;;;-4.15;48.9082;96288.51;;;;
2022/02/28 02:27:00;;;;;;;18.95;12.55;;;;;;;-4.15;48.9082;96288.51;;;;
2022/02/28 02:28:02;;;;;;;18.95;12.55;;;;;;;-4.15;48.9082;96288.51;;;;
2022/02/28 02:29:04;;;;;;;19.95;13.55;;;;;;;-4.27;49.49805;96288.65;;;;
2022/02/28 02:30:05;;;;;;;19.95;13.55;;;;;;;-4.27;49.49805;96288.65;;;;
2022/02/28 02:31:06;;;;;;;19.95;13.55;;;;;;;-4.27;49.49805;96288.65;;;;
2022/02/28 02:32:07;;;;;;;19.95;13.55;;;;;;;-4.27;49.49805;96288.65;;;;
2022/02/28 02:33:08;;;;;;;19.95;13.55;;;;;;;-4.27;49.49805;96288.65;;;;
2022/02/28 02:34:09;;;;;;;19.95;13.55;;;;;;;-4.27;49.49805;96288.65;;;;
2022/02/28 02:35:11;;;;;;;19.95;13.55;;;;;;;-4.27;49.49805;96288.65;;;;
2022/02/28 02:36:12;;;;;;;19.95;13.55;;;;;;;-4.27;49.49805;96288.65;;;;
2022/02/28 02:37:12;;;;;;;19.95;13.55;;;;;;;-4.27;49.49805;96288.65;;;;
2022/02/28 02:38:13;;;;;;;19.95;13.55;;;;;;;-4.27;49.49805;96288.65;;;;
2022/02/28 02:39:14;;;;;;;19.45;13.05;;;;;;;-4.4;50.09766;96299.33;;;;
2022/02/28 02:40:15;;;;;;;19.45;13.05;;;;;;;-4.4;50.09766;96299.33;;;;
2022/02/28 02:41:15;;;;;;;19.45;13.05;;;;;;;-4.4;50.09766;96299.33;;;;
2022/02/28 02:42:16;;;;;;;19.45;13.05;;;;;;;-4.4;50.09766;96299.33;;;;
2022/02/28 02:43:16;;;;;;;19.45;13.05;;;;;;;-4.4;50.09766;96299.33;;;;
2022/02/28 02:44:17;;;;;;;19.45;13.05;;;;;;;-4.4;50.09766;96299.33;;;;
2022/02/28 02:45:18;;;;;;;19.45;13.05;;;;;;;-4.4;50.09766;96299.33;;;;
2022/02/28 02:46:18;;;;;;;19.45;13.05;;;;;;;-4.4;50.09766;96299.33;;;;
2022/02/28 02:47:19;;;;;;;19.45;13.05;;;;;;;-4.4;50.09766;96299.33;;;;
2022/02/28 02:48:19;;;;;;;19.45;13.05;;;;;;;-4.4;50.09766;96299.33;;;;
2022/02/28 02:49:22;;;;;;;19.45;13.05;;;;;;;-4.4;50.09766;96299.33;;;;
2022/02/28 02:50:23;;;;;;;19.45;13.05;;;;;;;-4.4;50.09766;96299.33;;;;
2022/02/28 02:51:23;;;;;;;19.45;13.05;;;;;;;-4.4;50.09766;96299.33;;;;
2022/02/28 02:52:24;;;;;;;19.45;13.05;;;;;;;-4.4;50.09766;96299.33;;;;
2022/02/28 02:53:25;;;;;;;19.45;13.05;;;;;;;-4.4;50.09766;96299.33;;;;
2022/02/28 02:54:25;;;;;;;19.45;13.05;;;;;;;-4.4;50.09766;96299.33;;;;
2022/02/28 02:55:26;;;;;;;19.45;13.05;;;;;;;-4.4;50.09766;96299.33;;;;
2022/02/28 02:56:26;;;;;;;19.45;13.05;;;;;;;-4.4;50.09766;96299.33;;;;
2022/02/28 02:57:27;;;;;;;19.45;13.05;;;;;;;-4.4;50.09766;96299.33;;;;
2022/02/28 02:58:27;;;;;;;19.45;13.05;;;;;;;-4.4;50.09766;96299.33;;;;
2022/02/28 02:59:28;;;;;;;19.45;13.05;;;;;;;-4.4;50.09766;96299.33;;;;
2022/02/28 03:00:28;;;;;;;20.35;13.6;;;;;;;-4.51;50.99902;96296.26;;;;
2022/02/28 03:01:29;;;;;;;20.35;13.6;;;;;;;-4.51;50.99902;96296.26;;;;
2022/02/28 03:02:32;;;;;;;20.35;13.6;;;;;;;-4.51;50.99902;96296.26;;;;
2022/02/28 03:03:32;;;;;;;20.35;13.6;;;;;;;-4.51;50.99902;96296.26;;;;
2022/02/28 03:04:33;;;;;;;20.35;13.6;;;;;;;-4.51;50.99902;96296.26;;;;
2022/02/28 03:05:34;;;;;;;20.35;13.6;;;;;;;-4.51;50.99902;96296.26;;;;
2022/02/28 03:06:35;;;;;;;20.35;13.6;;;;;;;-4.51;50.99902;96296.26;;;;
2022/02/28 03:07:35;;;;;;;20.35;13.6;;;;;;;-4.51;50.99902;96296.26;;;;
2022/02/28 03:08:35;;;;;;;20.35;13.6;;;;;;;-4.51;50.99902;96296.26;;;;
2022/02/28 03:09:36;;;;;;;20.35;13.6;;;;;;;-4.51;50.99902;96296.26;;;;
2022/02/28 03:10:36;;;;;;;20.35;13.6;;;;;;;-4.51;50.99902;96296.26;;;;
2022/02/28 03:11:37;;;;;;;20.45;14;;;;;;;-4.64;51.47168;96317.47;;;;
2022/02/28 03:12:39;;;;;;;20.45;14;;;;;;;-4.64;51.47168;96317.47;;;;
2022/02/28 03:13:39;;;;;;;20.45;14;;;;;;;-4.64;51.47168;96317.47;;;;
2022/02/28 03:14:40;;;;;;;20.45;14;;;;;;;-4.64;51.47168;96317.47;;;;
2022/02/28 03:15:41;;;;;;;20.45;14;;;;;;;-4.64;51.47168;96317.47;;;;
2022/02/28 03:16:41;;;;;;;20.45;14;;;;;;;-4.64;51.47168;96317.47;;;;
2022/02/28 03:17:42;;;;;;;20.45;14;;;;;;;-4.64;51.47168;96317.47;;;;
2022/02/28 03:18:42;;;;;;;20.45;14;;;;;;;-4.64;51.47168;96317.47;;;;
2022/02/28 03:19:43;;;;;;;20.45;14;;;;;;;-4.64;51.47168;96317.47;;;;
2022/02/28 03:20:43;;;;;;;20.45;14;;;;;;;-4.64;51.47168;96317.47;;;;
2022/02/28 03:21:44;;;;;;;21.55;14.2;;;;;;;-4.68;51.8916;96333.64;;;;
2022/02/28 03:22:44;;;;;;;21.55;14.2;;;;;;;-4.68;51.8916;96333.64;;;;
2022/02/28 03:23:45;;;;;;;21.55;14.2;;;;;;;-4.68;51.8916;96333.64;;;;
2022/02/28 03:24:45;;;;;;;21.55;14.2;;;;;;;-4.68;51.8916;96333.64;;;;
2022/02/28 03:25:46;;;;;;;21.55;14.2;;;;;;;-4.68;51.8916;96333.64;;;;
2022/02/28 03:26:46;;;;;;;21.55;14.2;;;;;;;-4.68;51.8916;96333.64;;;;
2022/02/28 03:27:47;;;;;;;21.55;14.2;;;;;;;-4.68;51.8916;96333.64;;;;
2022/02/28 03:28:47;;;;;;;21.55;14.2;;;;;;;-4.68;51.8916;96333.64;;;;
2022/02/28 03:29:48;;;;;;;21.55;14.2;;;;;;;-4.68;51.8916;96333.64;;;;
2022/02/28 03:30:49;;;;;;;21.55;14.2;;;;;;;-4.68;51.8916;96333.64;;;;
2022/02/28 03:31:49;;;;;;;21.55;14.2;;;;;;;-4.68;51.8916;96333.64;;;;
2022/02/28 03:32:50;;;;;;;21.4;15;;;;;;;-4.71;52.2832;96332.95;;;;
2022/02/28 03:33:50;;;;;;;21.4;15;;;;;;;-4.71;52.2832;96332.95;;;;
2022/02/28 03:34:51;;;;;;;21.4;15;;;;;;;-4.71;52.2832;96332.95;;;;
2022/02/28 03:35:51;;;;;;;21.4;15;;;;;;;-4.71;52.2832;96332.95;;;;
2022/02/28 03:36:52;;;;;;;21.4;15;;;;;;;-4.71;52.2832;96332.95;;;;
2022/02/28 03:37:52;;;;;;;21.4;15;;;;;;;-4.71;52.2832;96332.95;;;;
2022/02/28 03:38:53;;;;;;;21.4;15;;;;;;;-4.71;52.2832;96332.95;;;;
2022/02/28 03:39:55;;;;;;;21.4;15;;;;;;;-4.71;52.2832;96332.95;;;;
2022/02/28 03:40:55;;;;;;;21.4;15;;;;;;;-4.71;52.2832;96332.95;;;;
2022/02/28 03:41:56;;;;;;;21.4;15;;;;;;;-4.71;52.2832;96332.95;;;;
2022/02/28 03:42:58;;;;;;;21.4;15;;;;;;;-4.71;52.2832;96332.95;;;;
2022/02/28 03:43:58;;;;;;;21.55;14.55;;;;;;;-4.75;52.67188;96338.59;;;;
2022/02/28 03:44:58;;;;;;;21.55;14.55;;;;;;;-4.75;52.67188;96338.59;;;;
2022/02/28 03:45:59;;;;;;;21.55;14.55;;;;;;;-4.75;52.67188;96338.59;;;;
2022/02/28 03:47:00;;;;;;;21.55;14.55;;;;;;;-4.75;52.67188;96338.59;;;;
2022/02/28 03:48:00;;;;;;;21.55;14.55;;;;;;;-4.75;52.67188;96338.59;;;;
2022/02/28 03:49:01;;;;;;;21.55;14.55;;;;;;;-4.75;52.67188;96338.59;;;;
2022/02/28 03:50:02;;;;;;;21.55;14.55;;;;;;;-4.75;52.67188;96338.59;;;;
2022/02/28 03:51:04;;;;;;;21.55;14.55;;;;;;;-4.75;52.67188;96338.59;;;;
2022/02/28 03:52:04;;;;;;;21.55;14.55;;;;;;;-4.75;52.67188;96338.59;;;;
2022/02/28 03:53:06;;;;;;;21.55;14.55;;;;;;;-4.75;52.67188;96338.59;;;;
2022/02/28 03:54:11;;;;;;;19.5;14.55;;;;;;;-4.88;53.27051;96335.17;;;;
2022/02/28 03:55:13;;;;;;;19.5;14.55;;;;;;;-4.88;53.27051;96335.17;;;;
2022/02/28 03:56:13;;;;;;;19.5;14.55;;;;;;;-4.88;53.27051;96335.17;;;;
2022/02/28 03:57:14;;;;;;;19.5;14.55;;;;;;;-4.88;53.27051;96335.17;;;;
2022/02/28 03:58:14;;;;;;;19.5;14.55;;;;;;;-4.88;53.27051;96335.17;;;;
2022/02/28 03:59:15;;;;;;;19.5;14.55;;;;;;;-4.88;53.27051;96335.17;;;;
2022/02/28 04:00:15;;;;;;;19.5;14.55;;;;;;;-4.88;53.27051;96335.17;;;;
2022/02/28 04:01:17;;;;;;;19.5;14.55;;;;;;;-4.88;53.27051;96335.17;;;;
2022/02/28 04:02:17;;;;;;;19.5;14.55;;;;;;;-4.88;53.27051;96335.17;;;;
2022/02/28 04:03:17;;;;;;;19.5;14.55;;;;;;;-4.88;53.27051;96335.17;;;;
2022/02/28 04:04:18;;;;;;;19.5;14.55;;;;;;;-4.88;53.27051;96335.17;;;;
2022/02/28 04:05:19;;;;;;;19.3;13.9;;;;;;;-4.93;53.7207;96332.51;;;;
2022/02/28 04:06:19;;;;;;;19.3;13.9;;;;;;;-4.93;53.7207;96332.51;;;;
2022/02/28 04:07:20;;;;;;;19.3;13.9;;;;;;;-4.93;53.7207;96332.51;;;;
2022/02/28 04:08:21;;;;;;;19.3;13.9;;;;;;;-4.93;53.7207;96332.51;;;;
2022/02/28 04:09:22;;;;;;;19.3;13.9;;;;;;;-4.93;53.7207;96332.51;;;;
2022/02/28 04:10:23;;;;;;;19.3;13.9;;;;;;;-4.93;53.7207;96332.51;;;;
2022/02/28 04:11:23;;;;;;;19.3;13.9;;;;;;;-4.93;53.7207;96332.51;;;;
2022/02/28 04:12:24;;;;;;;19.3;13.9;;;;;;;-4.93;53.7207;96332.51;;;;
2022/02/28 04:13:24;;;;;;;19.3;13.9;;;;;;;-4.93;53.7207;96332.51;;;;
2022/02/28 04:14:25;;;;;;;19.3;13.9;;;;;;;-4.93;53.7207;96332.51;;;;
2022/02/28 04:15:26;;;;;;;19.3;13.8;;;;;;;-4.93;54.05273;96329.39;;;;
2022/02/28 04:16:26;;;;;;;19.3;13.8;;;;;;;-4.93;54.05273;96329.39;;;;
2022/02/28 04:17:27;;;;;;;19.3;13.8;;;;;;;-4.93;54.05273;96329.39;;;;
2022/02/28 04:18:29;;;;;;;19.3;13.8;;;;;;;-4.93;54.05273;96329.39;;;;
2022/02/28 04:19:29;;;;;;;19.3;13.8;;;;;;;-4.93;54.05273;96329.39;;;;
2022/02/28 04:20:30;;;;;;;19.3;13.8;;;;;;;-4.93;54.05273;96329.39;;;;
2022/02/28 04:21:31;;;;;;;19.3;13.8;;;;;;;-4.93;54.05273;96329.39;;;;
2022/02/28 04:22:31;;;;;;;19.3;13.8;;;;;;;-4.93;54.05273;96329.39;;;;
2022/02/28 04:23:32;;;;;;;19.3;13.8;;;;;;;-4.93;54.05273;96329.39;;;;
2022/02/28 04:24:32;;;;;;;19.3;13.8;;;;;;;-4.93;54.05273;96329.39;;;;
2022/02/28 04:25:33;;;;;;;19.3;13.8;;;;;;;-4.93;54.05273;96329.39;;;;
2022/02/28 04:26:35;;;;;;;20.15;14.2;;;;;;;-5.01;54.38379;96322.56;;;;
2022/02/28 04:27:35;;;;;;;20.15;14.2;;;;;;;-5.01;54.38379;96322.56;;;;
2022/02/28 04:28:36;;;;;;;20.15;14.2;;;;;;;-5.01;54.38379;96322.56;;;;
2022/02/28 04:29:37;;;;;;;20.15;14.2;;;;;;;-5.01;54.38379;96322.56;;;;
2022/02/28 04:30:37;;;;;;;20.15;14.2;;;;;;;-5.01;54.38379;96322.56;;;;
2022/02/28 04:31:38;;;;;;;20.15;14.2;;;;;;;-5.01;54.38379;96322.56;;;;
2022/02/28 04:32:39;;;;;;;20.15;14.2;;;;;;;-5.01;54.38379;96322.56;;;;
2022/02/28 04:33:39;;;;;;;20.15;14.2;;;;;;;-5.01;54.38379;96322.56;;;;
2022/02/28 04:34:41;;;;;;;20.15;14.2;;;;;;;-5.01;54.38379;96322.56;;;;
2022/02/28 04:35:41;;;;;;;20.15;14.2;;;;;;;-5.01;54.38379;96322.56;;;;
2022/02/28 04:36:42;;;;;;;21.65;14.8;;;;;;;-5.11;54.68262;96335.66;;;;
2022/02/28 04:37:42;;;;;;;21.65;14.8;;;;;;;-5.11;54.68262;96335.66;;;;
2022/02/28 04:38:43;;;;;;;21.65;14.8;;;;;;;-5.11;54.68262;96335.66;;;;
2022/02/28 04:39:43;;;;;;;21.65;14.8;;;;;;;-5.11;54.68262;96335.66;;;;
2022/02/28 04:40:44;;;;;;;21.65;14.8;;;;;;;-5.11;54.68262;96335.66;;;;
2022/02/28 04:41:44;;;;;;;21.65;14.8;;;;;;;-5.11;54.68262;96335.66;;;;
2022/02/28 04:42:45;;;;;;;21.65;14.8;;;;;;;-5.11;54.68262;96335.66;;;;
2022/02/28 04:43:45;;;;;;;21.65;14.8;;;;;;;-5.11;54.68262;96335.66;;;;
2022/02/28 04:44:46;;;;;;;21.65;14.8;;;;;;;-5.11;54.68262;96335.66;;;;
2022/02/28 04:45:46;;;;;;;21.65;14.8;;;;;;;-5.11;54.68262;96335.66;;;;
2022/02/28 04:46:47;;;;;;;21.65;14.8;;;;;;;-5.11;54.68262;96335.66;;;;
2022/02/28 04:47:47;;;;;;;21.65;15.25;;;;;;;-5.22;55.00098;96336.46;;;;
2022/02/28 04:48:48;;;;;;;21.65;15.25;;;;;;;-5.22;55.00098;96336.46;;;;
2022/02/28 04:49:49;;;;;;;21.65;15.25;;;;;;;-5.22;55.00098;96336.46;;;;
2022/02/28 04:50:55;;;;;;;21.65;15.25;;;;;;;-5.22;55.00098;96336.46;;;;
2022/02/28 04:51:55;;;;;;;21.65;15.25;;;;;;;-5.22;55.00098;96336.46;;;;
2022/02/28 04:52:56;;;;;;;21.65;15.25;;;;;;;-5.22;55.00098;96336.46;;;;
2022/02/28 04:53:56;;;;;;;21.65;15.25;;;;;;;-5.22;55.00098;96336.46;;;;
2022/02/28 04:54:57;;;;;;;21.65;15.25;;;;;;;-5.22;55.00098;96336.46;;;;
2022/02/28 04:55:58;;;;;;;21.65;15.25;;;;;;;-5.22;55.00098;96336.46;;;;
2022/02/28 04:56:58;;;;;;;21.65;15.25;;;;;;;-5.22;55.00098;96336.46;;;;
2022/02/28 04:57:59;;;;;;;23.25;16;;;;;;;-5.36;55.3457;96331.36;;;;
2022/02/28 04:58:59;;;;;;;23.25;16;;;;;;;-5.36;55.3457;96331.36;;;;
2022/02/28 05:00:00;;;;;;;23.25;16;;;;;;;-5.36;55.3457;96331.36;;;;
2022/02/28 05:01:00;;;;;;;23.25;16;;;;;;;-5.36;55.3457;96331.36;;;;
2022/02/28 05:02:01;;;;;;;23.25;16;;;;;;;-5.36;55.3457;96331.36;;;;
2022/02/28 05:03:02;;;;;;;23.25;16;;;;;;;-5.36;55.3457;96331.36;;;;
2022/02/28 05:04:02;;;;;;;23.25;16;;;;;;;-5.36;55.3457;96331.36;;;;
2022/02/28 05:05:03;;;;;;;23.25;16;;;;;;;-5.36;55.3457;96331.36;;;;
2022/02/28 05:06:04;;;;;;;23.25;16;;;;;;;-5.36;55.3457;96331.36;;;;
2022/02/28 05:07:05;;;;;;;23.25;16;;;;;;;-5.36;55.3457;96331.36;;;;
2022/02/28 05:08:05;;;;;;;23.25;16;;;;;;;-5.36;55.3457;96331.36;;;;
2022/02/28 05:09:07;;;;;;;24.6;16.2;;;;;;;-5.42;55.77246;96348.05;;;;
2022/02/28 05:10:07;;;;;;;24.6;16.2;;;;;;;-5.42;55.77246;96348.05;;;;
2022/02/28 05:11:08;;;;;;;24.6;16.2;;;;;;;-5.42;55.77246;96348.05;;;;
2022/02/28 05:12:08;;;;;;;24.6;16.2;;;;;;;-5.42;55.77246;96348.05;;;;
2022/02/28 05:13:09;;;;;;;24.6;16.2;;;;;;;-5.42;55.77246;96348.05;;;;
2022/02/28 05:14:10;;;;;;;24.6;16.2;;;;;;;-5.42;55.77246;96348.05;;;;
2022/02/28 05:15:10;;;;;;;24.6;16.2;;;;;;;-5.42;55.77246;96348.05;;;;
2022/02/28 05:16:11;;;;;;;24.6;16.2;;;;;;;-5.42;55.77246;96348.05;;;;
2022/02/28 05:17:11;;;;;;;24.6;16.2;;;;;;;-5.42;55.77246;96348.05;;;;
2022/02/28 05:18:12;;;;;;;24.6;16.2;;;;;;;-5.42;55.77246;96348.05;;;;
2022/02/28 05:19:12;;;;;;;22.4;15.8;;;;;;;-5.47;56.00391;96338.31;;;;
2022/02/28 05:20:13;;;;;;;22.4;15.8;;;;;;;-5.47;56.00391;96338.31;;;;
2022/02/28 05:21:14;;;;;;;22.4;15.8;;;;;;;-5.47;56.00391;96338.31;;;;
2022/02/28 05:22:14;;;;;;;22.4;15.8;;;;;;;-5.47;56.00391;96338.31;;;;
2022/02/28 05:23:15;;;;;;;22.4;15.8;;;;;;;-5.47;56.00391;96338.31;;;;
2022/02/28 05:24:15;;;;;;;22.4;15.8;;;;;;;-5.47;56.00391;96338.31;;;;
2022/02/28 05:25:16;;;;;;;22.4;15.8;;;;;;;-5.47;56.00391;96338.31;;;;
2022/02/28 05:26:16;;;;;;;22.4;15.8;;;;;;;-5.47;56.00391;96338.31;;;;
2022/02/28 05:27:17;;;;;;;22.4;15.8;;;;;;;-5.47;56.00391;96338.31;;;;
2022/02/28 05:28:17;;;;;;;22.4;15.8;;;;;;;-5.47;56.00391;96338.31;;;;
2022/02/28 05:29:18;;;;;;;22.4;15.8;;;;;;;-5.47;56.00391;96338.31;;;;
2022/02/28 05:30:18;;;;;;;23.4;15.8;;;;;;;-5.54;56.44043;96341.04;;;;
2022/02/28 05:31:19;;;;;;;23.4;15.8;;;;;;;-5.54;56.44043;96341.04;;;;
2022/02/28 05:32:20;;;;;;;23.4;15.8;;;;;;;-5.54;56.44043;96341.04;;;;
2022/02/28 05:33:21;;;;;;;23.4;15.8;;;;;;;-5.54;56.44043;96341.04;;;;
2022/02/28 05:34:22;;;;;;;23.4;15.8;;;;;;;-5.54;56.44043;96341.04;;;;
2022/02/28 05:35:23;;;;;;;23.4;15.8;;;;;;;-5.54;56.44043;96341.04;;;;
2022/02/28 05:36:23;;;;;;;23.4;15.8;;;;;;;-5.54;56.44043;96341.04;;;;
2022/02/28 05:37:24;;;;;;;23.4;15.8;;;;;;;-5.54;56.44043;96341.04;;;;
2022/02/28 05:38:24;;;;;;;23.4;15.8;;;;;;;-5.54;56.44043;96341.04;;;;
2022/02/28 05:39:25;;;;;;;23.4;15.8;;;;;;;-5.54;56.44043;96341.04;;;;